Time;durP1;ratioP1;P1;durP2;ratioP2;P2;SDS_P1;SDS_P2;PMS_P1;PMS_P2;Temp;Humidity;BMP_temperature;BMP_pressure;BME280_temperature;BME280_humidity;BME280_pressure;Samples;Min_cycle;Max_cycle;Signal;HPM_P1;HPM_P2
2022/02/21 00:00:08;;;;;;;1.92;1.70;;;;;;;10.56;100.00;95428.13;4972167;28;20065;-65
2022/02/21 00:02:36;;;;;;;1.70;1.60;;;;;;;10.64;100.00;95407.03;4987078;28;20065;-64
2022/02/21 00:05:06;;;;;;;1.80;1.70;;;;;;;10.73;100.00;95394.63;4991343;28;20082;-65
2022/02/21 00:07:35;;;;;;;1.80;1.70;;;;;;;10.76;100.00;95405.66;4989392;28;20068;-64
2022/02/21 00:10:03;;;;;;;1.77;1.67;;;;;;;10.75;100.00;95409.28;4991584;28;20069;-65
2022/02/21 00:12:32;;;;;;;2.30;1.90;;;;;;;10.75;100.00;95419.84;4988514;28;20074;-65
2022/02/21 00:15:02;;;;;;;1.85;1.75;;;;;;;10.76;100.00;95381.09;4989710;28;20185;-64
2022/02/21 00:17:31;;;;;;;1.70;1.60;;;;;;;10.84;100.00;95370.50;4986399;28;20085;-64
2022/02/21 00:19:59;;;;;;;1.80;1.70;;;;;;;10.77;100.00;95374.81;4991935;28;20074;-64
2022/02/21 00:22:27;;;;;;;1.70;1.60;;;;;;;10.75;100.00;95379.47;4985023;28;20093;-64
2022/02/21 00:24:56;;;;;;;1.90;1.70;;;;;;;10.74;100.00;95398.94;4989083;28;20537;-64
2022/02/21 00:27:25;;;;;;;1.60;1.50;;;;;;;10.65;100.00;95401.59;4982235;28;20077;-65
2022/02/21 00:29:53;;;;;;;1.70;1.60;;;;;;;10.72;100.00;95378.00;4973458;28;20055;-64
2022/02/21 00:32:23;;;;;;;1.80;1.70;;;;;;;10.61;100.00;95373.09;4969498;28;20093;-64
2022/02/21 00:34:52;;;;;;;1.70;1.60;;;;;;;10.82;100.00;95377.78;4975533;28;20081;-66
2022/02/21 00:37:20;;;;;;;1.90;1.80;;;;;;;10.70;100.00;95372.06;4985718;28;20508;-62
2022/02/21 00:39:48;;;;;;;1.80;1.70;;;;;;;10.64;100.00;95370.13;4988538;28;20073;-64
2022/02/21 00:42:21;;;;;;;1.80;1.70;;;;;;;10.58;100.00;95341.81;4991168;28;20536;-64
2022/02/21 00:44:51;;;;;;;2.00;1.83;;;;;;;10.58;100.00;95366.34;4987418;28;20070;-65
2022/02/21 00:47:20;;;;;;;1.73;1.63;;;;;;;10.69;100.00;95376.50;4988812;28;20820;-65
2022/02/21 00:49:50;;;;;;;1.60;1.50;;;;;;;10.68;100.00;95374.06;4992732;28;20693;-64
2022/02/21 00:52:18;;;;;;;1.90;1.80;;;;;;;10.51;100.00;95349.59;4991743;28;20074;-65
2022/02/21 00:54:46;;;;;;;1.90;1.70;;;;;;;10.61;100.00;95357.28;4985302;28;20707;-64
2022/02/21 00:57:15;;;;;;;1.60;1.50;;;;;;;10.70;100.00;95332.50;4987749;28;20577;-67
2022/02/21 00:59:44;;;;;;;1.83;1.73;;;;;;;10.72;100.00;95341.06;4985873;28;20551;-65
2022/02/21 01:02:13;;;;;;;1.70;1.60;;;;;;;10.62;100.00;95327.28;4987750;28;20078;-65
2022/02/21 01:04:42;;;;;;;2.00;1.83;;;;;;;10.65;100.00;95297.94;4984808;28;20044;-65
2022/02/21 01:07:11;;;;;;;1.70;1.60;;;;;;;10.90;100.00;95311.78;4992368;28;20058;-65
2022/02/21 01:09:40;;;;;;;1.70;1.60;;;;;;;10.83;100.00;95318.75;4987667;28;20517;-65
2022/02/21 01:12:09;;;;;;;7.40;1.75;;;;;;;10.75;100.00;95306.47;4985674;28;20073;-65
2022/02/21 01:14:37;;;;;;;2.00;1.80;;;;;;;10.85;100.00;95298.31;4980892;28;20473;-65
2022/02/21 01:17:06;;;;;;;1.80;1.70;;;;;;;10.82;100.00;95296.03;4969973;28;20082;-64
2022/02/21 01:19:34;;;;;;;1.80;1.70;;;;;;;10.69;100.00;95286.88;4971208;28;20070;-65
2022/02/21 01:22:03;;;;;;;1.70;1.60;;;;;;;10.77;100.00;95267.56;4966675;28;20409;-64
2022/02/21 01:24:33;;;;;;;1.80;1.70;;;;;;;10.82;100.00;95283.66;4977218;28;20062;-64
2022/02/21 01:27:01;;;;;;;1.80;1.70;;;;;;;10.67;100.00;95280.97;5002825;28;20136;-64
2022/02/21 01:29:30;;;;;;;1.80;1.70;;;;;;;10.55;100.00;95273.63;4983449;28;20086;-63
2022/02/21 01:31:58;;;;;;;2.03;1.70;;;;;;;10.64;100.00;95294.50;4984542;28;20090;-64
2022/02/21 01:34:26;;;;;;;1.90;1.70;;;;;;;10.60;100.00;95261.56;4988643;28;20074;-64
2022/02/21 01:36:55;;;;;;;2.13;1.70;;;;;;;10.55;100.00;95276.25;4985884;28;20062;-65
2022/02/21 01:39:23;;;;;;;1.83;1.73;;;;;;;10.52;100.00;95264.22;4986513;28;20065;-64
2022/02/21 01:41:53;;;;;;;2.15;1.95;;;;;;;10.64;100.00;95254.94;4982566;28;20552;-64
2022/02/21 01:44:35;;;;;;;1.70;1.60;;;;;;;10.57;100.00;95230.28;4964343;28;20090;-64
2022/02/21 01:47:05;;;;;;;1.80;1.70;;;;;;;10.57;100.00;95219.75;4965502;28;20078;-65
2022/02/21 01:49:33;;;;;;;1.90;1.80;;;;;;;10.60;100.00;95218.56;4984218;28;20065;-64
2022/02/21 01:52:03;;;;;;;2.15;1.90;;;;;;;10.62;100.00;95213.94;4994331;28;20070;-65
2022/02/21 01:54:32;;;;;;;2.03;1.93;;;;;;;10.69;100.00;95207.78;4986602;28;20074;-64
2022/02/21 01:57:03;;;;;;;1.90;1.80;;;;;;;10.83;100.00;95206.19;4986394;28;20465;-65
2022/02/21 01:59:33;;;;;;;1.92;1.83;;;;;;;10.74;100.00;95211.72;4985126;28;20563;-64
2022/02/21 02:02:01;;;;;;;2.20;1.90;;;;;;;10.77;100.00;95184.97;4975562;28;20104;-64
2022/02/21 02:04:31;;;;;;;3.25;2.00;;;;;;;10.88;100.00;95155.56;4983049;28;20513;-65
2022/02/21 02:06:59;;;;;;;2.10;1.90;;;;;;;10.86;100.00;95166.28;4985729;28;20077;-64
2022/02/21 02:09:28;;;;;;;3.78;1.90;;;;;;;10.85;100.00;95163.84;4990548;28;20058;-65
2022/02/21 02:11:57;;;;;;;2.10;1.90;;;;;;;10.82;100.00;95166.81;4988274;28;20042;-63
2022/02/21 02:14:31;;;;;;;2.00;1.80;;;;;;;10.82;100.00;95140.47;4988816;28;20093;-65
2022/02/21 02:17:02;;;;;;;2.45;1.92;;;;;;;10.90;100.00;95140.38;4994249;28;20090;-64
2022/02/21 02:19:31;;;;;;;1.90;1.70;;;;;;;10.81;100.00;95072.91;4990395;28;20077;-64
2022/02/21 02:22:08;;;;;;;1.80;1.70;;;;;;;10.86;100.00;95118.00;4988563;28;20074;-64
2022/02/21 02:24:37;;;;;;;4.68;1.90;;;;;;;10.83;100.00;95097.25;4975259;28;20083;-64
2022/02/21 02:27:08;;;;;;;2.13;1.88;;;;;;;10.95;100.00;95109.03;4969927;28;20082;-64
2022/02/21 02:29:37;;;;;;;2.28;1.92;;;;;;;11.09;100.00;95097.66;4966748;28;20168;-63
2022/02/21 02:32:07;;;;;;;2.15;1.60;;;;;;;11.11;100.00;95095.66;4975750;28;20086;-64
2022/02/21 02:34:35;;;;;;;1.65;1.55;;;;;;;11.14;100.00;95078.63;4977528;28;20513;-62
2022/02/21 02:37:06;;;;;;;4.78;2.05;;;;;;;11.26;100.00;95089.56;4985542;28;20062;-64
2022/02/21 02:39:34;;;;;;;5.22;2.00;;;;;;;11.19;100.00;95080.75;4986923;28;20513;-64
2022/02/21 02:42:04;;;;;;;1.90;1.70;;;;;;;11.35;98.67;95067.34;4988751;28;20559;-64
2022/02/21 02:44:32;;;;;;;1.70;1.60;;;;;;;11.32;100.00;95089.66;4993318;28;20078;-65
2022/02/21 02:47:05;;;;;;;2.45;1.63;;;;;;;11.25;99.80;95056.25;4990913;28;20077;-65
2022/02/21 02:49:34;;;;;;;1.80;1.70;;;;;;;11.38;94.59;95040.59;4988107;28;20070;-62
2022/02/21 02:52:03;;;;;;;1.75;1.65;;;;;;;11.42;95.80;95044.50;4990914;28;20062;-64
2022/02/21 02:54:33;;;;;;;1.70;1.60;;;;;;;11.35;95.38;94915.09;4993570;28;20050;-63
2022/02/21 02:57:02;;;;;;;2.17;1.70;;;;;;;11.52;95.53;95052.13;4988803;28;20074;-64
2022/02/21 02:59:30;;;;;;;1.70;1.60;;;;;;;11.49;94.17;95057.78;4987943;28;20445;-65
2022/02/21 03:01:59;;;;;;;1.60;1.50;;;;;;;11.26;93.40;95034.16;4993464;28;20086;-64
2022/02/21 03:04:27;;;;;;;1.80;1.70;;;;;;;11.64;89.35;95018.97;4990037;28;20084;-65
2022/02/21 03:06:58;;;;;;;1.83;1.70;;;;;;;11.39;91.60;95021.13;4988650;28;20058;-64
2022/02/21 03:09:27;;;;;;;1.80;1.70;;;;;;;11.31;91.58;95006.19;4977235;28;20077;-64
2022/02/21 03:11:57;;;;;;;1.67;1.58;;;;;;;11.46;93.87;94995.63;4972617;28;20085;-64
2022/02/21 03:14:26;;;;;;;1.70;1.60;;;;;;;11.41;89.79;94975.06;4987640;28;20085;-61
2022/02/21 03:16:54;;;;;;;1.70;1.60;;;;;;;11.59;93.45;95008.13;4995828;28;20070;-62
2022/02/21 03:19:25;;;;;;;1.65;1.55;;;;;;;11.50;91.22;95004.81;5000792;28;20074;-64
2022/02/21 03:21:55;;;;;;;2.13;1.67;;;;;;;11.55;92.26;94985.75;4989204;28;20544;-64
2022/02/21 03:24:23;;;;;;;1.63;1.52;;;;;;;11.48;91.71;94993.59;4987347;28;20081;-63
2022/02/21 03:26:52;;;;;;;1.98;1.77;;;;;;;11.63;84.54;94973.28;4992188;28;20069;-64
2022/02/21 03:29:22;;;;;;;1.80;1.70;;;;;;;11.68;85.01;94953.41;4995371;28;20081;-64
2022/02/21 03:31:50;;;;;;;1.70;1.60;;;;;;;11.59;85.45;94945.59;4988049;28;20090;-64
2022/02/21 03:34:19;;;;;;;2.47;1.65;;;;;;;11.67;86.77;94938.56;4996052;28;20101;-65
2022/02/21 03:36:47;;;;;;;1.70;1.60;;;;;;;11.61;85.61;94937.50;4990687;28;20070;-63
2022/02/21 03:39:15;;;;;;;1.67;1.58;;;;;;;11.49;88.07;94886.19;4989231;28;20069;-60
2022/02/21 03:41:44;;;;;;;1.73;1.63;;;;;;;11.57;86.50;94929.13;4986772;28;20070;-63
2022/02/21 03:44:12;;;;;;;3.33;1.60;;;;;;;11.49;87.71;94920.50;4991567;28;20070;-63
2022/02/21 03:46:43;;;;;;;2.05;1.50;;;;;;;11.59;92.39;94950.88;4992222;28;20068;-63
2022/02/21 03:49:30;;;;;;;1.67;1.58;;;;;;;11.59;89.40;94931.56;4986032;28;20126;-63
2022/02/21 03:51:58;;;;;;;1.88;1.70;;;;;;;11.57;91.76;94915.94;4976005;28;20068;-64
2022/02/21 03:54:26;;;;;;;1.60;1.50;;;;;;;11.46;92.04;94874.22;4966507;28;20085;-64
2022/02/21 03:56:55;;;;;;;2.45;1.70;;;;;;;11.37;94.34;94920.19;4967495;28;20139;-63
2022/02/21 03:59:23;;;;;;;1.73;1.63;;;;;;;11.52;96.04;94939.44;4970692;28;20093;-64
2022/02/21 04:01:53;;;;;;;1.60;1.50;;;;;;;11.46;100.00;94934.91;4990378;28;20457;-64
2022/02/21 04:04:22;;;;;;;1.70;1.60;;;;;;;11.39;100.00;94944.59;4985591;28;20069;-64
2022/02/21 04:06:50;;;;;;;1.67;1.58;;;;;;;11.40;97.73;94930.38;4992638;28;20105;-63
2022/02/21 04:09:19;;;;;;;1.90;1.80;;;;;;;11.65;93.22;94939.56;4989657;28;20077;-64
2022/02/21 04:11:49;;;;;;;2.75;2.00;;;;;;;11.49;96.84;94929.25;4989628;28;20073;-63
2022/02/21 04:14:17;;;;;;;2.50;1.80;;;;;;;11.45;98.54;94924.53;4990474;28;20089;-64
2022/02/21 04:16:46;;;;;;;1.98;1.80;;;;;;;11.45;99.71;94935.91;4996388;28;20077;-64
2022/02/21 04:19:16;;;;;;;3.15;1.85;;;;;;;11.31;100.00;94926.22;4988718;28;20486;-64
2022/02/21 04:21:44;;;;;;;2.65;1.80;;;;;;;11.50;100.00;94930.91;4989883;28;20073;-64
2022/02/21 04:24:13;;;;;;;1.70;1.60;;;;;;;11.36;100.00;94915.94;4997668;28;20060;-64
2022/02/21 04:26:41;;;;;;;1.90;1.70;;;;;;;11.10;100.00;94898.81;4992120;28;20070;-64
2022/02/21 04:29:10;;;;;;;1.92;1.70;;;;;;;11.30;100.00;94903.47;4996960;28;20081;-64
2022/02/21 04:31:38;;;;;;;2.15;2.03;;;;;;;11.08;100.00;94897.34;4996639;28;20513;-63
2022/02/21 04:34:07;;;;;;;2.00;1.60;;;;;;;11.13;100.00;94953.81;5003588;28;20066;-63
2022/02/21 04:36:38;;;;;;;1.73;1.63;;;;;;;11.07;100.00;94914.19;4984639;28;20066;-62
2022/02/21 04:39:07;;;;;;;1.77;1.67;;;;;;;11.21;100.00;94925.69;5007648;28;20060;-62
2022/02/21 04:41:35;;;;;;;1.73;1.60;;;;;;;11.25;100.00;94917.25;4988870;28;20101;-62
2022/02/21 04:44:04;;;;;;;1.60;1.50;;;;;;;11.33;100.00;94908.38;4990089;28;22451;-58
2022/02/21 04:46:33;;;;;;;1.70;1.60;;;;;;;11.20;100.00;94900.31;4969093;28;20135;-61
2022/02/21 04:49:02;;;;;;;1.60;1.50;;;;;;;11.07;100.00;94893.91;4981480;28;20074;-62
2022/02/21 04:51:30;;;;;;;1.80;1.70;;;;;;;10.90;100.00;94885.38;4988087;28;20108;-63
2022/02/21 04:54:00;;;;;;;1.80;1.70;;;;;;;10.99;100.00;94904.56;4985014;28;20069;-61
2022/02/21 04:56:28;;;;;;;1.83;1.73;;;;;;;11.05;100.00;94845.81;4969735;28;20113;-62
2022/02/21 04:58:57;;;;;;;1.70;1.60;;;;;;;10.73;100.00;94880.50;4965048;28;20066;-60
2022/02/21 05:01:25;;;;;;;2.08;1.92;;;;;;;10.73;100.00;94831.22;4964528;28;20065;-62
2022/02/21 05:03:54;;;;;;;2.00;1.70;;;;;;;10.59;100.00;94876.88;4970759;28;20066;-62
2022/02/21 05:06:23;;;;;;;1.85;1.70;;;;;;;10.63;100.00;94870.25;4977928;28;20062;-62
2022/02/21 05:08:51;;;;;;;1.63;1.52;;;;;;;10.65;100.00;94892.78;4969647;28;20069;-63
2022/02/21 05:11:21;;;;;;;1.80;1.70;;;;;;;10.66;100.00;94870.69;4987168;28;20078;-63
2022/02/21 05:13:49;;;;;;;1.83;1.60;;;;;;;10.54;100.00;94860.81;4994392;28;20089;-59
2022/02/21 05:16:18;;;;;;;1.80;1.70;;;;;;;10.44;100.00;94853.19;4989767;28;20508;-62
2022/02/21 05:18:46;;;;;;;1.75;1.60;;;;;;;10.45;100.00;94854.81;4971552;28;20063;-62
2022/02/21 05:21:14;;;;;;;1.70;1.60;;;;;;;10.49;100.00;94860.53;4968178;28;20070;-62
2022/02/21 05:23:43;;;;;;;1.77;1.67;;;;;;;10.31;100.00;94855.66;4966057;28;20067;-62
2022/02/21 05:26:11;;;;;;;1.80;1.70;;;;;;;10.44;100.00;94846.09;4970569;28;20086;-62
2022/02/21 05:28:41;;;;;;;2.08;1.88;;;;;;;10.24;100.00;94837.09;4971569;28;20119;-63
2022/02/21 05:31:09;;;;;;;2.50;1.77;;;;;;;10.47;100.00;94833.56;4967098;28;20540;-62
2022/02/21 05:33:38;;;;;;;1.80;1.70;;;;;;;10.56;100.00;94838.53;4964188;28;21291;-62
2022/02/21 05:36:07;;;;;;;2.00;1.90;;;;;;;10.36;100.00;94838.31;4974099;28;20077;-62
2022/02/21 05:38:35;;;;;;;1.95;1.80;;;;;;;10.24;100.00;94829.19;4983339;28;20078;-61
2022/02/21 05:41:04;;;;;;;1.83;1.73;;;;;;;10.44;100.00;94838.19;4976083;28;20089;-62
2022/02/21 05:43:32;;;;;;;1.70;1.60;;;;;;;10.34;100.00;94821.03;4987719;28;20076;-62
2022/02/21 05:46:02;;;;;;;2.22;1.73;;;;;;;10.42;100.00;94805.94;4986383;28;20088;-62
2022/02/21 05:48:30;;;;;;;1.90;1.80;;;;;;;10.44;100.00;94834.75;4991750;28;20069;-62
2022/02/21 05:50:59;;;;;;;2.65;1.98;;;;;;;10.08;100.00;94882.88;4991567;28;20879;-62
2022/02/21 05:53:27;;;;;;;1.90;1.80;;;;;;;9.99;100.00;94955.84;5006397;28;20109;-62
2022/02/21 05:55:56;;;;;;;2.15;1.95;;;;;;;5.83;100.00;95029.31;4990411;28;20555;-63
2022/02/21 05:58:24;;;;;;;2.58;2.00;;;;;;;6.81;100.00;95050.94;4994002;28;20074;-61
2022/02/21 06:00:55;;;;;;;2.20;2.10;;;;;;;6.28;100.00;95084.16;4986972;28;20069;-60
2022/02/21 06:03:24;;;;;;;;;;;;;;;5.52;100.00;95120.38;4976555;28;20747;-61
2022/02/21 06:05:53;;;;;;;2.70;2.50;;;;;;;5.29;100.00;95133.00;4969750;28;19984;-58
2022/02/21 06:08:22;;;;;;;2.85;2.65;;;;;;;4.58;100.00;95154.44;4962875;28;20478;-59
2022/02/21 06:10:51;;;;;;;2.83;2.63;;;;;;;4.28;100.00;95151.84;4967807;28;20086;-60
2022/02/21 06:13:19;;;;;;;2.88;2.67;;;;;;;4.13;100.00;95175.84;4966268;28;20070;-63
2022/02/21 06:15:47;;;;;;;4.20;2.97;;;;;;;3.76;100.00;95173.91;4971659;28;20101;-62
2022/02/21 06:18:17;;;;;;;4.28;2.65;;;;;;;3.69;100.00;95186.66;4959611;28;20487;-63
2022/02/21 06:20:47;;;;;;;3.10;2.90;;;;;;;3.88;100.00;95200.69;4967269;28;20062;-63
2022/02/21 06:23:16;;;;;;;3.78;3.47;;;;;;;3.86;100.00;95194.78;4995533;28;20520;-60
2022/02/21 06:25:44;;;;;;;3.33;3.05;;;;;;;3.83;100.00;95174.19;4968118;28;21033;-62
2022/02/21 06:28:13;;;;;;;3.17;2.88;;;;;;;3.93;100.00;95191.50;4965204;28;20229;-62
2022/02/21 06:30:42;;;;;;;3.83;2.83;;;;;;;3.99;100.00;95208.38;4964243;28;20081;-63
2022/02/21 06:33:10;;;;;;;2.85;2.70;;;;;;;3.98;100.00;95204.94;4964448;28;20066;-67
2022/02/21 06:35:39;;;;;;;2.90;2.70;;;;;;;4.04;100.00;95201.00;4967641;28;20058;-64
2022/02/21 06:38:08;;;;;;;2.90;2.70;;;;;;;3.99;100.00;95172.72;4989144;28;20082;-62
2022/02/21 06:40:37;;;;;;;2.60;2.50;;;;;;;3.95;100.00;95196.56;4990893;28;20065;-61
2022/02/21 06:43:05;;;;;;;2.70;2.60;;;;;;;4.08;100.00;95196.31;4991951;28;20077;-60
2022/02/21 06:45:34;;;;;;;2.95;2.75;;;;;;;4.07;100.00;95198.13;4984669;28;20078;-62
2022/02/21 06:48:02;;;;;;;2.90;2.70;;;;;;;4.16;100.00;95197.28;4990700;28;20066;-64
2022/02/21 06:50:31;;;;;;;2.80;2.70;;;;;;;4.15;100.00;95192.22;4998799;28;20108;-65
2022/02/21 06:53:00;;;;;;;3.30;3.00;;;;;;;4.14;100.00;95201.81;4993302;28;20088;-63
2022/02/21 06:55:30;;;;;;;3.10;2.90;;;;;;;4.27;100.00;95218.03;4989354;28;20073;-66
2022/02/21 06:57:58;;;;;;;2.75;2.65;;;;;;;4.35;100.00;95188.66;4989650;28;20544;-66
2022/02/21 07:00:26;;;;;;;3.20;3.00;;;;;;;4.31;100.00;95189.06;4993258;28;20077;-67
2022/02/21 07:02:55;;;;;;;3.00;2.80;;;;;;;4.44;100.00;95205.25;4990128;28;20073;-66
2022/02/21 07:05:23;;;;;;;4.65;3.50;;;;;;;4.40;100.00;95204.69;5000007;28;20074;-65
2022/02/21 07:08:10;;;;;;;4.60;2.95;;;;;;;4.47;100.00;95212.81;4988378;28;20188;-68
2022/02/21 07:10:40;;;;;;;2.85;2.65;;;;;;;4.43;100.00;95230.53;4968589;28;20050;-68
2022/02/21 07:13:09;;;;;;;3.13;2.78;;;;;;;4.52;100.00;95226.28;4985220;28;20061;-66
2022/02/21 07:15:37;;;;;;;5.68;2.80;;;;;;;4.33;100.00;95221.88;4994608;28;20069;-68
2022/02/21 07:18:05;;;;;;;2.88;2.67;;;;;;;4.45;100.00;95227.78;4995799;28;20080;-67
2022/02/21 07:20:34;;;;;;;2.75;2.65;;;;;;;4.32;100.00;95233.28;4990488;28;20101;-67
2022/02/21 07:23:02;;;;;;;2.90;2.70;;;;;;;4.33;100.00;95255.78;4992865;28;20193;-65
2022/02/21 07:25:31;;;;;;;2.85;2.65;;;;;;;4.38;100.00;95266.66;4995073;28;20081;-66
2022/02/21 07:28:00;;;;;;;2.97;2.78;;;;;;;4.48;100.00;95271.91;4992552;28;20070;-66
2022/02/21 07:30:30;;;;;;;4.47;2.90;;;;;;;4.54;100.00;95253.06;4992310;28;20074;-66
2022/02/21 07:32:58;;;;;;;3.00;2.80;;;;;;;4.61;100.00;95282.91;4992170;28;20515;-65
2022/02/21 07:35:27;;;;;;;3.00;2.80;;;;;;;4.76;100.00;95280.69;4993473;28;20088;-66
2022/02/21 07:37:56;;;;;;;2.80;2.60;;;;;;;4.63;100.00;95261.84;4993425;28;20085;-66
2022/02/21 07:40:26;;;;;;;2.97;2.60;;;;;;;4.65;100.00;95283.44;4986656;28;20569;-66
2022/02/21 07:42:55;;;;;;;3.00;2.80;;;;;;;4.88;100.00;95300.47;4992751;28;20480;-65
2022/02/21 07:45:27;;;;;;;3.70;2.80;;;;;;;4.76;100.00;95301.59;4992618;28;20563;-66
2022/02/21 07:47:57;;;;;;;3.05;2.72;;;;;;;4.71;100.00;95294.16;4992106;28;20069;-65
2022/02/21 07:50:28;;;;;;;3.70;3.05;;;;;;;4.62;100.00;95302.00;5001896;28;20081;-65
2022/02/21 07:52:56;;;;;;;2.95;2.70;;;;;;;4.79;100.00;95326.59;4970741;28;20081;-65
2022/02/21 07:55:27;;;;;;;2.95;2.65;;;;;;;4.72;100.00;95327.16;4963149;28;20074;-63
2022/02/21 07:57:57;;;;;;;2.70;2.58;;;;;;;4.72;100.00;95321.09;4968248;28;20077;-64
2022/02/21 08:00:27;;;;;;;3.22;2.92;;;;;;;4.63;100.00;95354.06;4969604;28;20070;-65
2022/02/21 08:02:56;;;;;;;2.95;2.72;;;;;;;4.58;100.00;95377.16;4973542;28;20061;-66
2022/02/21 08:05:26;;;;;;;3.25;3.05;;;;;;;4.88;100.00;95399.72;4983153;28;20480;-65
2022/02/21 08:07:55;;;;;;;2.70;2.50;;;;;;;4.74;100.00;95408.75;4999706;28;20082;-63
2022/02/21 08:10:26;;;;;;;2.88;2.67;;;;;;;4.60;100.00;95383.03;4994449;28;20456;-64
2022/02/21 08:12:54;;;;;;;2.88;2.67;;;;;;;4.68;100.00;95424.13;4986463;28;20058;-67
2022/02/21 08:15:23;;;;;;;3.00;2.80;;;;;;;4.87;100.00;95403.28;4990249;28;20073;-63
2022/02/21 08:17:53;;;;;;;3.20;2.88;;;;;;;4.94;100.00;95411.41;4993639;28;20065;-64
2022/02/21 08:20:25;;;;;;;4.18;2.90;;;;;;;5.04;100.00;95393.16;4989933;28;20104;-64
2022/02/21 08:22:54;;;;;;;3.25;3.00;;;;;;;5.54;100.00;95411.28;4995254;28;20082;-64
2022/02/21 08:25:23;;;;;;;4.28;2.55;;;;;;;5.28;100.00;95438.00;4988295;28;20077;-66
2022/02/21 08:27:56;;;;;;;2.78;2.58;;;;;;;5.24;100.00;95450.50;4988133;28;20038;-64
2022/02/21 08:30:26;;;;;;;5.32;2.90;;;;;;;5.37;100.00;95449.41;4991679;28;20081;-64
2022/02/21 08:32:56;;;;;;;6.30;3.05;;;;;;;5.53;100.00;95456.69;4993824;28;20073;-64
2022/02/21 08:35:26;;;;;;;3.13;2.60;;;;;;;5.44;100.00;95487.94;4988516;28;20088;-64
2022/02/21 08:37:55;;;;;;;3.47;2.53;;;;;;;5.38;100.00;95505.97;4994896;28;20081;-64
2022/02/21 08:40:32;;;;;;;3.03;2.75;;;;;;;5.14;100.00;95529.84;4999817;28;20125;-64
2022/02/21 08:43:00;;;;;;;2.78;2.58;;;;;;;5.59;100.00;95513.69;4972718;28;20063;-64
2022/02/21 08:45:29;;;;;;;2.83;2.63;;;;;;;5.42;100.00;95521.22;4962901;28;20105;-65
2022/02/21 08:47:58;;;;;;;5.28;3.15;;;;;;;5.59;100.00;95503.22;4976718;28;20057;-64
2022/02/21 08:50:27;;;;;;;5.63;2.53;;;;;;;5.70;100.00;95505.69;4982554;28;20082;-65
2022/02/21 08:52:55;;;;;;;5.22;2.58;;;;;;;5.83;100.00;95511.47;4969824;28;20501;-64
2022/02/21 08:55:26;;;;;;;4.68;3.00;;;;;;;5.75;100.00;95513.09;4973539;28;20070;-65
2022/02/21 08:57:54;;;;;;;3.17;2.50;;;;;;;5.75;100.00;95526.19;4984491;28;20069;-64
2022/02/21 09:00:22;;;;;;;3.47;2.63;;;;;;;5.58;100.00;95525.94;4990217;28;20477;-64
2022/02/21 09:02:51;;;;;;;3.00;2.72;;;;;;;5.72;100.00;95551.69;4987528;28;20093;-65
2022/02/21 09:05:35;;;;;;;2.92;2.30;;;;;;;5.92;100.00;95555.16;4990176;28;20743;-65
2022/02/21 09:08:05;;;;;;;3.83;2.95;;;;;;;5.99;100.00;95510.94;4988629;28;20088;-64
2022/02/21 09:10:33;;;;;;;4.20;2.53;;;;;;;6.33;100.00;95547.94;4986417;28;20066;-63
2022/02/21 09:13:02;;;;;;;4.10;2.40;;;;;;;6.26;100.00;95551.25;4993496;28;20058;-63
2022/02/21 09:15:30;;;;;;;3.67;2.40;;;;;;;6.55;100.00;95544.16;4996163;28;20070;-63
2022/02/21 09:18:02;;;;;;;4.60;2.50;;;;;;;6.42;100.00;95557.56;4988421;28;20065;-64
2022/02/21 09:20:30;;;;;;;2.80;2.40;;;;;;;6.54;100.00;95552.19;4987683;28;20097;-64
2022/02/21 09:23:00;;;;;;;2.60;2.40;;;;;;;6.32;100.00;95556.75;4994260;28;20086;-64
2022/02/21 09:25:30;;;;;;;3.85;2.28;;;;;;;6.56;100.00;95566.75;4992152;28;20073;-65
2022/02/21 09:27:58;;;;;;;3.47;2.50;;;;;;;6.47;100.00;95564.16;4988307;28;20077;-62
2022/02/21 09:30:27;;;;;;;2.50;2.30;;;;;;;6.70;100.00;95551.56;4976063;28;21522;-65
2022/02/21 09:32:55;;;;;;;5.82;2.28;;;;;;;6.59;100.00;95544.69;4977360;28;20061;-64
2022/02/21 09:35:24;;;;;;;2.40;2.20;;;;;;;6.47;100.00;95548.44;4969260;28;20086;-63
2022/02/21 09:37:53;;;;;;;3.72;2.50;;;;;;;6.32;100.00;95521.88;4992793;28;20089;-63
2022/02/21 09:40:23;;;;;;;3.22;2.60;;;;;;;6.45;100.00;95551.22;4977053;28;20081;-60
2022/02/21 09:42:51;;;;;;;5.03;2.53;;;;;;;6.42;100.00;95549.69;4965507;28;20329;-62
2022/02/21 09:45:20;;;;;;;6.43;2.67;;;;;;;6.49;100.00;95533.44;4966186;28;20486;-64
2022/02/21 09:47:52;;;;;;;2.50;2.30;;;;;;;6.10;100.00;95550.03;4961529;28;20074;-63
2022/02/21 09:50:37;;;;;;;2.70;2.50;;;;;;;6.32;100.00;95554.13;4971070;28;20128;-62
2022/02/21 09:53:05;;;;;;;2.47;2.28;;;;;;;6.27;100.00;95561.59;4989464;28;20078;-56
2022/02/21 09:55:36;;;;;;;2.97;2.30;;;;;;;6.44;100.00;95574.94;4991045;28;20072;-62
2022/02/21 09:58:05;;;;;;;2.92;2.30;;;;;;;6.43;100.00;95566.22;4993399;28;20074;-62
2022/02/21 10:00:34;;;;;;;3.22;2.40;;;;;;;6.52;100.00;95565.41;4993486;28;20073;-64
2022/02/21 10:03:03;;;;;;;3.67;2.25;;;;;;;6.30;100.00;95577.03;4984650;28;20084;-65
2022/02/21 10:05:32;;;;;;;2.50;2.30;;;;;;;6.57;100.00;95571.06;4990619;28;20066;-60
2022/02/21 10:08:07;;;;;;;5.00;2.40;;;;;;;6.54;100.00;95566.09;5000825;28;20085;-63
2022/02/21 10:10:38;;;;;;;2.47;2.28;;;;;;;6.47;100.00;95565.00;4990040;28;20066;-59
2022/02/21 10:13:06;;;;;;;2.80;2.22;;;;;;;6.44;100.00;95559.22;4993126;28;20452;-61
2022/02/21 10:15:36;;;;;;;3.42;2.83;;;;;;;6.71;100.00;95569.78;4988069;28;20129;-62
2022/02/21 10:18:12;;;;;;;3.63;2.47;;;;;;;6.68;100.00;95564.00;4991857;28;20062;-63
2022/02/21 10:20:54;;;;;;;2.85;2.60;;;;;;;7.03;100.00;95563.31;4989812;28;20868;-61
2022/02/21 10:23:24;;;;;;;2.50;2.30;;;;;;;7.06;100.00;95553.34;4982586;28;20097;-63
2022/02/21 10:25:57;;;;;;;3.20;2.55;;;;;;;6.80;100.00;95555.78;4996717;28;20077;-64
2022/02/21 10:28:28;;;;;;;2.72;2.38;;;;;;;7.05;100.00;95571.81;4988584;28;20074;-60
2022/02/21 10:31:14;;;;;;;6.43;2.47;;;;;;;6.76;100.00;95564.91;4971791;28;20055;-66
2022/02/21 10:33:59;;;;;;;4.03;2.30;;;;;;;6.85;100.00;95571.94;4966828;28;20085;-63
2022/02/21 10:36:30;;;;;;;2.60;2.40;;;;;;;6.76;100.00;95538.72;4976492;28;20073;-63
2022/02/21 10:38:58;;;;;;;3.20;2.45;;;;;;;7.15;100.00;95559.50;4991169;28;20081;-60
2022/02/21 10:41:48;;;;;;;2.70;2.50;;;;;;;6.95;100.00;95547.44;4992453;28;20470;-64
2022/02/21 10:44:19;;;;;;;3.45;2.38;;;;;;;7.48;100.00;95549.41;4992469;28;20508;-61
2022/02/21 10:47:18;;;;;;;2.15;2.00;;;;;;;7.19;100.00;95547.78;4993815;28;21506;-63
2022/02/21 10:49:52;;;;;;;3.20;2.50;;;;;;;7.10;100.00;95546.84;4994405;28;20402;-56
2022/02/21 10:52:24;;;;;;;3.78;2.55;;;;;;;7.04;100.00;95538.72;4994906;28;20062;-61
2022/02/21 10:54:53;;;;;;;3.38;2.65;;;;;;;7.15;100.00;95535.91;4992404;28;20065;-63
2022/02/21 10:57:25;;;;;;;3.60;2.47;;;;;;;7.10;100.00;95536.34;4988243;28;20074;-64
2022/02/21 10:59:55;;;;;;;2.42;2.10;;;;;;;7.24;100.00;95515.88;4996018;28;20082;-60
2022/02/21 11:02:24;;;;;;;4.82;2.40;;;;;;;7.18;100.00;95532.16;4992612;28;20088;-61
2022/02/21 11:04:52;;;;;;;3.25;2.33;;;;;;;6.95;100.00;95527.34;4995087;28;20116;-64
2022/02/21 11:07:21;;;;;;;5.20;2.50;;;;;;;6.88;100.00;95513.13;4996014;28;20073;-62
2022/02/21 11:09:50;;;;;;;2.83;2.28;;;;;;;6.86;100.00;95541.31;4990952;28;20065;-60
2022/02/21 11:12:20;;;;;;;4.22;2.40;;;;;;;6.96;100.00;95522.91;4987694;28;20068;-62
2022/02/21 11:14:50;;;;;;;3.10;2.40;;;;;;;7.25;100.00;95535.84;4991779;28;20078;-62
2022/02/21 11:17:19;;;;;;;3.28;2.45;;;;;;;7.04;100.00;95529.06;4997864;28;20092;-64
2022/02/21 11:19:48;;;;;;;2.60;2.40;;;;;;;6.98;100.00;95526.19;4993451;28;20089;-62
2022/02/21 11:22:18;;;;;;;6.18;2.85;;;;;;;7.27;100.00;95537.38;4993380;28;21322;-62
2022/02/21 11:24:51;;;;;;;6.38;2.50;;;;;;;7.19;100.00;95529.44;4993572;28;20093;-59
2022/02/21 11:27:29;;;;;;;3.72;2.17;;;;;;;7.12;100.00;95537.03;4996843;28;20061;-61
2022/02/21 11:30:06;;;;;;;3.22;2.40;;;;;;;7.25;100.00;95530.63;4986375;28;20061;-59
2022/02/21 11:32:34;;;;;;;3.58;2.40;;;;;;;7.10;100.00;95544.22;4991131;28;20089;-62
2022/02/21 11:35:19;;;;;;;3.17;2.67;;;;;;;7.16;100.00;95521.84;4998990;28;20082;-59
2022/02/21 11:37:47;;;;;;;3.60;2.30;;;;;;;6.95;100.00;95519.47;4991901;28;20471;-61
2022/02/21 11:40:16;;;;;;;5.22;2.22;;;;;;;7.17;100.00;95509.56;4991235;28;20061;-62
2022/02/21 11:42:49;;;;;;;3.25;2.20;;;;;;;7.07;100.00;95484.22;4973062;28;20067;-63